Pineglen — VOGX — position and weather

sailwx.info

Track history (hours):
 
Tides and Currents Weather Stations Pressure Air Temp Water Temp Dewpoint Dewpoint Depression Visibility Wind Speed Wind Dir Waves Ship Positions

Pineglen

Last reported at 2015-Dec-30 06:29 UTC. Time now 2016-Feb-12 03:45 UTC.
Position N 42°28' W 080°07'.
Warning: this ship's position is 43 days out of date.

Length 220 m; draft 6.5 m.

Type: Cargo ship. MMSI: 316001839.

Date/timePositionNaut miles runAvg speedWind from/ knotsBaromVisibWave heightAir tempDewpointWater temp
2015-Dec-30 06:29N 42°28' W 080°07'9 9.2
2015-Dec-30 05:33N 42°35' W 080°01'9 9.0
2015-Dec-30 04:33N 42°41' W 080°11'0 0.1
2015-Dec-30 03:33N 42°41' W 080°10'0 0.0
2015-Dec-30 02:33N 42°41' W 080°10'0 0.0
2015-Dec-30 01:33N 42°40' W 080°10'0 0.0
2015-Dec-30 00:33N 42°41' W 080°10'0 0.0
2015-Dec-29 23:33N 42°41' W 080°10'0 0.0
2015-Dec-29 22:33N 42°41' W 080°10'0 0.0
2015-Dec-29 21:33N 42°41' W 080°10'0 0.0
2015-Dec-29 20:33N 42°41' W 080°10'0 0.0
2015-Dec-29 19:33N 42°41' W 080°10'0 0.0
2015-Dec-29 18:33N 42°41' W 080°10'0 0.0
2015-Dec-29 17:33N 42°41' W 080°10'0 0.1
2015-Dec-29 16:33N 42°41' W 080°11'0 0.0
2015-Dec-29 15:33N 42°41' W 080°11'0 0.1
2015-Dec-29 14:33N 42°40' W 080°11'7 6.6
2015-Dec-29 13:33N 42°37' W 080°03'10 7.8
2015-Dec-29 12:16N 42°27' W 079°60'53 1.5
2015-Dec-28 00:30N 43°07' W 079°12'1 0.8
2015-Dec-27 23:32N 43°07' W 079°12'0 0.5
2015-Dec-27 22:34N 43°08' W 079°12'0 0.1
2015-Dec-27 21:33N 43°08' W 079°12'1 0.6
2015-Dec-27 20:33N 43°09' W 079°12'1 1.0
2015-Dec-27 19:34N 43°10' W 079°12'2 2.0
2015-Dec-27 18:34N 43°12' W 079°12'2 1.5
2015-Dec-27 17:34N 43°13' W 079°13'2 2.4
2015-Dec-27 16:33N 43°16' W 079°13'1410.2
2015-Dec-27 15:13N 43°25' W 078°60'11411.8
2015-Dec-27 05:33N 44°01' W 076°30'1210.9
2015-Dec-27 04:29N 44°10' W 076°20'110 7.7
2015-Dec-26 14:09N 45°14' W 074°13'5 8.9
2015-Dec-26 13:32N 45°13' W 074°06'7 6.8
2015-Dec-26 12:33N 45°16' W 073°57'2 2.3
2015-Dec-26 11:33N 45°18' W 073°55'1 0.7
2015-Dec-26 10:34N 45°19' W 073°55'2 1.6
2015-Dec-26 09:33N 45°20' W 073°54'9 8.9
2015-Dec-26 08:33N 45°25' W 073°43'6 5.7
2015-Dec-26 07:33N 45°24' W 073°35'1 1.4
2015-Dec-26 06:33N 45°24' W 073°33'5 4.9
2015-Dec-26 05:33N 45°29' W 073°31'  
2015-Dec-21 12:28N 45°34' W 073°31'3 2.1
2015-Dec-21 11:15N 45°31' W 073°31'1 1.9
2015-Dec-21 10:30N 45°30' W 073°31'2 2.3
2015-Dec-21 09:34N 45°27' W 073°30'4 3.0
2015-Dec-21 08:12N 45°24' W 073°34'1 1.6
2015-Dec-21 07:31N 45°24' W 073°36'4 4.3
2015-Dec-21 06:33N 45°25' W 073°41'9 9.0
2015-Dec-21 05:34N 45°21' W 073°53'3 2.8
2015-Dec-21 04:34N 45°19' W 073°55'1 1.1
2015-Dec-21 03:33N 45°18' W 073°56'9 6.9
2015-Dec-21 02:19N 45°13' W 074°06'105 7.6
2015-Dec-20 12:30N 44°14' W 076°08'12 9.3
2015-Dec-20 11:16N 44°08' W 076°21'1114.2
2015-Dec-20 10:29N 43°59' W 076°30'  
Track history (hours):
 
Tides and Currents Weather Stations Pressure Air Temp Water Temp Dewpoint Dewpoint Depression Visibility Wind Speed Wind Dir Waves Ship Positions

Pineglen

Last reported at 2015-Dec-30 06:29 UTC. Time now 2016-Feb-12 03:45 UTC.
Position N 42°28' W 080°07'.
Warning: this ship's position is 43 days out of date.

Length 220 m; draft 6.5 m.

Type: Cargo ship. MMSI: 316001839.

Date/timePositionNaut miles runAvg speedWind from/ knotsBaromVisibWave heightAir tempDewpointWater temp
2015-Dec-30 06:29N 42°28' W 080°07'9 9.2
2015-Dec-30 05:33N 42°35' W 080°01'9 9.0
2015-Dec-30 04:33N 42°41' W 080°11'0 0.1
2015-Dec-30 03:33N 42°41' W 080°10'0 0.0
2015-Dec-30 02:33N 42°41' W 080°10'0 0.0
2015-Dec-30 01:33N 42°40' W 080°10'0 0.0
2015-Dec-30 00:33N 42°41' W 080°10'0 0.0
2015-Dec-29 23:33N 42°41' W 080°10'0 0.0
2015-Dec-29 22:33N 42°41' W 080°10'0 0.0
2015-Dec-29 21:33N 42°41' W 080°10'0 0.0
2015-Dec-29 20:33N 42°41' W 080°10'0 0.0
2015-Dec-29 19:33N 42°41' W 080°10'0 0.0
2015-Dec-29 18:33N 42°41' W 080°10'0 0.0
2015-Dec-29 17:33N 42°41' W 080°10'0 0.1
2015-Dec-29 16:33N 42°41' W 080°11'0 0.0
2015-Dec-29 15:33N 42°41' W 080°11'0 0.1
2015-Dec-29 14:33N 42°40' W 080°11'7 6.6
2015-Dec-29 13:33N 42°37' W 080°03'10 7.8
2015-Dec-29 12:16N 42°27' W 079°60'53 1.5
2015-Dec-28 00:30N 43°07' W 079°12'1 0.8
2015-Dec-27 23:32N 43°07' W 079°12'0 0.5
2015-Dec-27 22:34N 43°08' W 079°12'0 0.1
2015-Dec-27 21:33N 43°08' W 079°12'1 0.6
2015-Dec-27 20:33N 43°09' W 079°12'1 1.0
2015-Dec-27 19:34N 43°10' W 079°12'2 2.0
2015-Dec-27 18:34N 43°12' W 079°12'2 1.5
2015-Dec-27 17:34N 43°13' W 079°13'2 2.4
2015-Dec-27 16:33N 43°16' W 079°13'1410.2
2015-Dec-27 15:13N 43°25' W 078°60'11411.8
2015-Dec-27 05:33N 44°01' W 076°30'1210.9
2015-Dec-27 04:29N 44°10' W 076°20'110 7.7
2015-Dec-26 14:09N 45°14' W 074°13'5 8.9
2015-Dec-26 13:32N 45°13' W 074°06'7 6.8
2015-Dec-26 12:33N 45°16' W 073°57'2 2.3
2015-Dec-26 11:33N 45°18' W 073°55'1 0.7
2015-Dec-26 10:34N 45°19' W 073°55'2 1.6
2015-Dec-26 09:33N 45°20' W 073°54'9 8.9
2015-Dec-26 08:33N 45°25' W 073°43'6 5.7
2015-Dec-26 07:33N 45°24' W 073°35'1 1.4
2015-Dec-26 06:33N 45°24' W 073°33'5 4.9
2015-Dec-26 05:33N 45°29' W 073°31'  
2015-Dec-21 12:28N 45°34' W 073°31'3 2.1
2015-Dec-21 11:15N 45°31' W 073°31'1 1.9
2015-Dec-21 10:30N 45°30' W 073°31'2 2.3
2015-Dec-21 09:34N 45°27' W 073°30'4 3.0
2015-Dec-21 08:12N 45°24' W 073°34'1 1.6
2015-Dec-21 07:31N 45°24' W 073°36'4 4.3
2015-Dec-21 06:33N 45°25' W 073°41'9 9.0
2015-Dec-21 05:34N 45°21' W 073°53'3 2.8
2015-Dec-21 04:34N 45°19' W 073°55'1 1.1
2015-Dec-21 03:33N 45°18' W 073°56'9 6.9
2015-Dec-21 02:19N 45°13' W 074°06'105 7.6
2015-Dec-20 12:30N 44°14' W 076°08'12 9.3
2015-Dec-20 11:16N 44°08' W 076°21'1114.2
2015-Dec-20 10:29N 43°59' W 076°30'  

Dump ship's entire track history